Time;durP1;ratioP1;P1;durP2;ratioP2;P2;SDS_P1;SDS_P2;PMS_P1;PMS_P2;Temp;Humidity;BMP_temperature;BMP_pressure;BME280_temperature;BME280_humidity;BME280_pressure;Samples;Min_cycle;Max_cycle;Signal;HPM_P1;HPM_P2
2022/09/10 00:00:20;;;;;;;7.45;6.22;;;15.50;99.90;;;;;;4958487;28;20079;-83
2022/09/10 00:02:46;;;;;;;7.78;6.75;;;15.50;99.90;;;;;;4946400;28;20035;-83
2022/09/10 00:05:12;;;;;;;7.15;6.55;;;15.50;99.90;;;;;;4944667;28;20408;-83
2022/09/10 00:07:38;;;;;;;7.97;7.00;;;15.50;99.90;;;;;;4946883;28;20811;-84
2022/09/10 00:10:03;;;;;;;8.00;7.30;;;15.50;99.90;;;;;;4960089;28;20743;-83
2022/09/10 00:12:30;;;;;;;8.15;7.32;;;15.50;99.90;;;;;;4956037;28;20042;-83
2022/09/10 00:14:56;;;;;;;9.93;8.73;;;15.50;99.90;;;;;;4943079;28;20091;-83
2022/09/10 00:17:23;;;;;;;11.35;8.25;;;15.40;99.90;;;;;;4955897;28;20052;-83
2022/09/10 00:19:48;;;;;;;8.70;8.00;;;15.40;99.90;;;;;;4947913;28;20174;-83
2022/09/10 00:22:14;;;;;;;9.65;8.65;;;15.40;99.90;;;;;;4939106;28;20095;-83
2022/09/10 00:24:39;;;;;;;10.05;8.73;;;15.40;99.90;;;;;;4943425;28;20142;-83
2022/09/10 00:27:05;;;;;;;10.07;9.18;;;15.40;99.90;;;;;;4955737;28;20042;-83
2022/09/10 00:29:30;;;;;;;8.85;7.95;;;15.40;99.90;;;;;;4943379;28;20035;-83
2022/09/10 00:31:56;;;;;;;9.27;8.30;;;15.40;99.90;;;;;;4946140;28;20066;-83
2022/09/10 00:34:21;;;;;;;9.82;8.85;;;15.30;99.90;;;;;;4943180;28;20047;-83
2022/09/10 00:36:47;;;;;;;11.10;9.95;;;15.40;99.90;;;;;;4955737;28;20055;-83
2022/09/10 00:39:15;;;;;;;10.65;9.52;;;15.40;99.90;;;;;;4945264;28;20039;-83
2022/09/10 00:41:43;;;;;;;12.65;10.38;;;15.40;99.90;;;;;;4949653;28;20063;-83
2022/09/10 00:44:40;;;;;;;11.55;9.15;;;15.30;99.90;;;;;;4944194;28;20117;-84
2022/09/10 00:47:30;;;;;;;10.73;9.63;;;15.40;99.90;;;;;;4947526;28;20063;-83
2022/09/10 00:50:25;;;;;;;12.85;10.73;;;15.30;99.90;;;;;;4948033;28;20051;-83
2022/09/10 00:52:54;;;;;;;11.23;10.23;;;15.40;99.90;;;;;;4955737;28;20063;-84
2022/09/10 00:55:20;;;;;;;12.20;10.73;;;15.30;99.90;;;;;;4936825;28;20051;-83
2022/09/10 00:57:49;;;;;;;12.10;10.88;;;15.40;99.90;;;;;;4946933;28;20653;-83
2022/09/10 01:00:15;;;;;;;12.88;11.25;;;15.30;99.90;;;;;;4944085;28;20051;-83
2022/09/10 01:02:41;;;;;;;12.32;11.13;;;15.40;99.90;;;;;;4957590;28;20043;-83
2022/09/10 01:05:08;;;;;;;12.40;11.30;;;15.40;99.90;;;;;;4950741;28;20039;-83
2022/09/10 01:07:34;;;;;;;13.63;12.25;;;15.40;99.90;;;;;;4957696;28;20043;-83
2022/09/10 01:10:04;;;;;;;13.55;12.23;;;15.40;99.90;;;;;;4960723;28;20083;-83
2022/09/10 01:13:07;;;;;;;13.15;11.90;;;15.40;99.90;;;;;;4943468;28;20054;-83
2022/09/10 01:16:01;;;;;;;13.93;12.40;;;15.40;99.90;;;;;;4960392;28;20262;-82
2022/09/10 01:18:36;;;;;;;15.32;13.38;;;15.40;99.90;;;;;;4951917;28;20150;-83
2022/09/10 01:21:22;;;;;;;13.00;11.90;;;15.40;99.90;;;;;;4929565;28;20516;-83
2022/09/10 01:24:16;;;;;;;14.02;12.80;;;15.40;99.90;;;;;;4956529;28;20107;-83
2022/09/10 01:26:51;;;;;;;15.15;12.90;;;15.40;99.90;;;;;;4955522;28;20122;-83
2022/09/10 01:29:25;;;;;;;13.65;12.45;;;15.40;99.90;;;;;;4944590;28;20400;-83
2022/09/10 01:31:58;;;;;;;17.13;14.38;;;15.40;99.90;;;;;;4944998;28;20479;-83
2022/09/10 01:34:40;;;;;;;16.95;14.15;;;15.40;99.90;;;;;;4942555;28;20050;-83
2022/09/10 01:37:13;;;;;;;15.10;13.15;;;15.40;99.90;;;;;;4932709;28;20035;-83
2022/09/10 01:39:41;;;;;;;16.95;15.18;;;15.50;99.90;;;;;;4958701;28;20043;-83
2022/09/10 01:42:06;;;;;;;18.05;16.17;;;15.50;99.90;;;;;;4955303;28;20027;-83
2022/09/10 01:44:49;;;;;;;15.85;14.30;;;15.40;99.90;;;;;;4959819;28;20054;-83
2022/09/10 01:47:45;;;;;;;16.95;15.35;;;15.40;99.90;;;;;;4958838;28;20031;-83
2022/09/10 01:50:39;;;;;;;15.82;13.88;;;15.40;99.90;;;;;;4958561;28;20039;-83
2022/09/10 01:53:27;;;;;;;21.83;17.67;;;15.50;99.90;;;;;;4959780;28;20420;-83
2022/09/10 01:56:34;;;;;;;18.77;17.00;;;15.50;99.90;;;;;;4942377;28;20046;-82
2022/09/10 01:59:11;;;;;;;19.02;17.05;;;15.50;99.90;;;;;;4927303;29;20052;-82
2022/09/10 02:01:46;;;;;;;17.63;15.82;;;15.50;99.90;;;;;;4912432;29;20054;-83
2022/09/10 02:04:14;;;;;;;18.75;16.20;;;15.50;99.90;;;;;;4921727;28;20855;-83
2022/09/10 02:06:42;;;;;;;17.30;15.50;;;15.50;99.90;;;;;;4945804;28;20043;-82
2022/09/10 02:09:09;;;;;;;17.77;16.00;;;15.50;99.90;;;;;;4944085;28;20108;-83
2022/09/10 02:11:47;;;;;;;18.42;16.35;;;15.50;99.90;;;;;;4941723;28;20496;-82
2022/09/10 02:14:15;;;;;;;18.10;16.30;;;15.50;99.90;;;;;;4956622;28;20118;-82
2022/09/10 02:16:45;;;;;;;19.27;17.08;;;15.50;99.90;;;;;;4952842;28;20051;-82
2022/09/10 02:19:13;;;;;;;20.98;15.68;;;15.50;99.90;;;;;;4956806;28;20075;-82
2022/09/10 02:21:39;;;;;;;17.65;15.85;;;15.50;99.90;;;;;;4961440;28;20039;-82
2022/09/10 02:24:07;;;;;;;17.65;15.85;;;15.50;99.90;;;;;;4959776;28;20047;-83
2022/09/10 02:26:36;;;;;;;18.02;16.15;;;15.50;99.90;;;;;;4941297;28;20049;-82
2022/09/10 02:29:01;;;;;;;16.83;14.75;;;15.50;99.90;;;;;;4955602;28;20039;-82
2022/09/10 02:31:27;;;;;;;17.38;15.55;;;15.50;99.90;;;;;;4948804;28;20039;-82
2022/09/10 02:33:53;;;;;;;16.67;14.85;;;15.50;99.90;;;;;;4941749;28;20047;-82
2022/09/10 02:36:19;;;;;;;17.38;15.68;;;15.50;99.90;;;;;;4940807;28;20055;-82
2022/09/10 02:38:45;;;;;;;17.08;15.35;;;15.40;99.90;;;;;;4953430;28;20479;-82
2022/09/10 02:41:10;;;;;;;16.58;14.88;;;15.40;99.90;;;;;;4945685;28;20125;-82
2022/09/10 02:43:37;;;;;;;16.52;14.90;;;15.40;99.90;;;;;;4959005;28;20081;-82
2022/09/10 02:46:06;;;;;;;18.92;15.82;;;15.50;99.90;;;;;;4943922;28;20052;-83
2022/09/10 02:48:31;;;;;;;17.58;15.75;;;15.50;99.90;;;;;;4945256;28;20036;-83
2022/09/10 02:50:57;;;;;;;20.27;15.90;;;15.40;99.90;;;;;;4954650;28;20036;-83
2022/09/10 02:53:23;;;;;;;15.85;14.27;;;15.40;99.90;;;;;;4945209;28;20094;-83
2022/09/10 02:55:48;;;;;;;18.35;15.88;;;15.60;99.90;;;;;;4947640;28;20111;-83
2022/09/10 02:58:15;;;;;;;19.27;15.45;;;15.30;99.90;;;;;;4956634;28;20047;-82
2022/09/10 03:00:41;;;;;;;15.75;14.30;;;15.40;99.90;;;;;;4943280;28;20125;-82
2022/09/10 03:03:07;;;;;;;20.50;15.63;;;15.40;99.90;;;;;;4943114;28;20067;-82
2022/09/10 03:05:37;;;;;;;16.45;14.48;;;15.40;99.90;;;;;;4958259;28;20059;-82
2022/09/10 03:08:03;;;;;;;17.17;14.88;;;15.30;99.90;;;;;;4952372;28;20039;-82
2022/09/10 03:10:30;;;;;;;17.35;13.70;;;15.30;99.90;;;;;;4946403;28;20098;-83
2022/09/10 03:12:56;;;;;;;15.38;13.80;;;15.20;99.90;;;;;;4956408;28;20171;-83
2022/09/10 03:15:22;;;;;;;15.38;13.90;;;15.20;99.90;;;;;;4961981;28;20039;-83
2022/09/10 03:17:48;;;;;;;14.85;13.55;;;15.30;99.90;;;;;;4957429;28;20062;-83
2022/09/10 03:20:13;;;;;;;15.35;13.57;;;15.30;99.90;;;;;;4941465;28;20058;-83
2022/09/10 03:22:39;;;;;;;16.05;14.43;;;15.30;99.90;;;;;;4959201;28;20044;-83
2022/09/10 03:25:05;;;;;;;16.05;14.40;;;15.30;99.90;;;;;;4932266;28;20054;-82
2022/09/10 03:27:31;;;;;;;19.98;13.90;;;15.30;99.90;;;;;;4960581;28;20151;-82
2022/09/10 03:29:57;;;;;;;17.48;14.80;;;15.30;99.90;;;;;;4947704;28;20130;-82
2022/09/10 03:32:23;;;;;;;17.23;14.35;;;15.30;99.90;;;;;;4948350;28;20044;-82
2022/09/10 03:34:49;;;;;;;16.08;14.27;;;15.30;99.90;;;;;;4944814;28;20055;-82
2022/09/10 03:37:15;;;;;;;15.27;13.73;;;15.30;99.90;;;;;;4946759;28;20043;-83
2022/09/10 03:39:41;;;;;;;17.08;14.57;;;15.40;99.90;;;;;;4957975;28;20058;-82
2022/09/10 03:42:07;;;;;;;16.30;13.45;;;15.30;99.90;;;;;;4958949;28;20043;-82
2022/09/10 03:44:32;;;;;;;17.33;14.98;;;15.30;99.90;;;;;;4958039;28;20112;-82
2022/09/10 03:46:59;;;;;;;15.98;14.48;;;15.30;99.90;;;;;;4958789;28;20047;-82
2022/09/10 03:49:25;;;;;;;16.83;15.15;;;15.30;99.90;;;;;;4957229;28;20036;-82
2022/09/10 03:51:51;;;;;;;16.02;14.35;;;15.30;99.90;;;;;;4947219;28;20050;-82
2022/09/10 03:54:18;;;;;;;17.30;15.68;;;15.30;99.90;;;;;;4948480;28;20071;-83
2022/09/10 03:56:43;;;;;;;16.75;14.75;;;15.30;99.90;;;;;;4962366;28;20075;-82
2022/09/10 03:59:09;;;;;;;14.88;13.32;;;15.30;99.90;;;;;;4946551;28;20699;-83
2022/09/10 04:01:35;;;;;;;16.42;13.95;;;15.30;99.90;;;;;;4951519;28;20032;-82
2022/09/10 04:04:01;;;;;;;16.55;14.85;;;15.30;99.90;;;;;;4945121;28;20085;-82
2022/09/10 04:06:27;;;;;;;15.90;14.15;;;15.30;99.90;;;;;;4956134;28;20035;-82
2022/09/10 04:08:53;;;;;;;16.17;14.55;;;15.30;99.90;;;;;;4948250;28;20047;-82
2022/09/10 04:11:19;;;;;;;19.08;14.07;;;15.30;99.90;;;;;;4944829;28;20111;-83
2022/09/10 04:13:48;;;;;;;15.45;14.00;;;15.30;99.90;;;;;;4947087;28;20043;-82
2022/09/10 04:16:15;;;;;;;16.40;14.63;;;15.30;99.90;;;;;;4945989;28;20523;-82
2022/09/10 04:18:41;;;;;;;18.10;14.65;;;15.30;99.90;;;;;;4941856;28;20117;-82
2022/09/10 04:21:07;;;;;;;16.20;14.55;;;15.40;99.90;;;;;;4927249;28;20042;-82
2022/09/10 04:23:32;;;;;;;22.30;14.52;;;15.40;99.90;;;;;;4945363;28;20036;-82
2022/09/10 04:25:58;;;;;;;15.68;14.10;;;15.40;99.90;;;;;;4943445;28;20500;-82
2022/09/10 04:28:24;;;;;;;17.23;13.93;;;15.40;99.90;;;;;;4943963;28;20078;-82
2022/09/10 04:30:50;;;;;;;17.92;14.45;;;15.50;99.90;;;;;;4943680;28;20039;-82
2022/09/10 04:33:16;;;;;;;18.17;14.10;;;15.50;99.90;;;;;;4944249;28;20049;-82
2022/09/10 04:35:42;;;;;;;15.05;13.57;;;15.50;99.90;;;;;;4957220;28;20050;-82
2022/09/10 04:38:08;;;;;;;15.43;14.00;;;15.50;99.90;;;;;;4945269;28;20256;-82
2022/09/10 04:40:34;;;;;;;17.50;14.35;;;15.50;99.90;;;;;;4945421;28;20035;-83
2022/09/10 04:43:00;;;;;;;15.70;14.10;;;15.50;99.90;;;;;;4946771;28;20134;-83
2022/09/10 04:45:25;;;;;;;16.48;14.77;;;15.50;99.90;;;;;;4959424;28;20044;-82
2022/09/10 04:47:53;;;;;;;16.65;13.98;;;15.50;99.90;;;;;;4941127;28;20039;-83
2022/09/10 04:50:19;;;;;;;15.95;14.23;;;15.50;99.90;;;;;;4941424;28;20059;-83
2022/09/10 04:52:44;;;;;;;21.48;15.68;;;15.50;99.90;;;;;;4947427;28;20039;-83
2022/09/10 04:55:10;;;;;;;17.15;15.38;;;15.50;99.90;;;;;;4947069;28;20074;-83
2022/09/10 04:57:36;;;;;;;23.77;17.30;;;15.50;99.90;;;;;;4959323;28;20043;-83
2022/09/10 05:00:08;;;;;;;19.02;15.18;;;15.60;99.90;;;;;;4959126;28;20183;-83
2022/09/10 05:02:36;;;;;;;22.90;16.35;;;15.60;99.90;;;;;;4958369;28;20042;-82
2022/09/10 05:05:02;;;;;;;23.35;16.17;;;15.50;99.90;;;;;;4953671;28;20066;-83
2022/09/10 05:07:27;;;;;;;19.60;16.15;;;15.60;99.90;;;;;;4957406;28;20078;-83
2022/09/10 05:09:54;;;;;;;21.75;16.42;;;15.50;99.90;;;;;;4945404;28;20032;-82
2022/09/10 05:12:19;;;;;;;21.90;17.20;;;15.60;99.90;;;;;;4943215;28;20482;-82
2022/09/10 05:14:45;;;;;;;26.60;15.55;;;15.50;99.90;;;;;;4930029;28;20062;-82
2022/09/10 05:17:10;;;;;;;22.75;16.52;;;15.50;99.90;;;;;;4949558;28;20058;-82
2022/09/10 05:19:36;;;;;;;21.65;15.93;;;15.50;99.90;;;;;;4958966;28;20055;-83
2022/09/10 05:22:01;;;;;;;25.20;18.98;;;15.50;99.90;;;;;;4938719;28;20044;-82
2022/09/10 05:24:27;;;;;;;24.70;17.40;;;15.50;99.90;;;;;;4942460;28;20048;-83
2022/09/10 05:26:53;;;;;;;23.85;17.40;;;15.60;99.90;;;;;;4944093;28;20040;-83
2022/09/10 05:29:20;;;;;;;22.77;15.98;;;15.60;99.90;;;;;;4956497;28;20043;-83
2022/09/10 05:31:45;;;;;;;23.38;15.90;;;15.60;99.90;;;;;;4942386;28;20055;-82
2022/09/10 05:34:11;;;;;;;23.33;15.25;;;15.50;99.90;;;;;;4941137;28;20054;-82
2022/09/10 05:36:36;;;;;;;16.25;14.30;;;15.60;99.90;;;;;;4944331;28;20071;-82
2022/09/10 05:39:03;;;;;;;19.25;16.02;;;15.70;99.90;;;;;;4955282;28;20408;-82
2022/09/10 05:41:29;;;;;;;22.38;16.25;;;15.70;99.90;;;;;;4956966;28;20073;-82
2022/09/10 05:43:56;;;;;;;17.92;15.35;;;15.70;99.90;;;;;;4943982;28;20039;-82
2022/09/10 05:46:22;;;;;;;23.00;15.85;;;15.70;99.90;;;;;;4942591;28;20138;-83
2022/09/10 05:48:47;;;;;;;21.83;16.45;;;15.70;99.90;;;;;;4956512;28;20039;-82
2022/09/10 05:51:13;;;;;;;20.80;15.80;;;15.80;99.90;;;;;;4958727;28;20118;-82
2022/09/10 05:53:40;;;;;;;22.48;15.85;;;15.70;99.90;;;;;;4943401;28;20079;-82
2022/09/10 05:56:06;;;;;;;23.08;16.85;;;15.80;99.90;;;;;;4956993;28;20094;-82
2022/09/10 05:58:33;;;;;;;22.08;16.27;;;15.80;99.90;;;;;;4958559;28;20039;-82
2022/09/10 06:00:59;;;;;;;19.88;15.77;;;15.80;99.90;;;;;;4958729;28;20051;-82
2022/09/10 06:18:58;;;;;;;21.10;15.45;;;15.90;99.90;;;;;;4887549;29;20060;-88
2022/09/10 06:25:43;;;;;;;23.92;16.00;;;16.00;99.90;;;;;;4848608;29;20060;-84
2022/09/10 06:28:10;;;;;;;17.75;15.75;;;16.10;99.90;;;;;;4877574;29;20466;-85
2022/09/10 06:30:36;;;;;;;21.90;16.58;;;16.10;99.90;;;;;;4893760;29;20392;-85
2022/09/10 06:33:02;;;;;;;20.23;15.77;;;16.10;99.90;;;;;;4943748;28;20050;-85
2022/09/10 06:35:28;;;;;;;20.25;15.55;;;16.10;99.90;;;;;;4959950;28;20246;-85
2022/09/10 06:37:57;;;;;;;18.15;15.30;;;16.10;99.90;;;;;;4943772;28;20048;-85
2022/09/10 06:40:26;;;;;;;22.13;16.85;;;16.20;99.90;;;;;;4939247;28;20134;-83
2022/09/10 06:42:52;;;;;;;21.15;16.38;;;16.20;99.90;;;;;;4941792;28;20050;-83
2022/09/10 06:45:18;;;;;;;22.27;15.98;;;16.10;99.90;;;;;;4958135;28;20047;-86
2022/09/10 06:47:44;;;;;;;17.80;15.85;;;16.10;99.90;;;;;;4945567;28;20031;-83
2022/09/10 06:53:52;;;;;;;20.52;15.55;;;16.30;99.90;;;;;;4956945;28;20039;-83
2022/09/10 06:56:18;;;;;;;26.02;18.05;;;16.30;99.90;;;;;;4933216;29;20424;-83
2022/09/10 06:58:44;;;;;;;25.30;16.15;;;16.30;99.90;;;;;;4947600;28;20040;-81
2022/09/10 07:01:46;;;;;;;27.58;17.00;;;16.40;99.90;;;;;;4943492;28;20046;-88
2022/09/10 07:04:12;;;;;;;24.30;17.17;;;16.40;99.90;;;;;;4959357;28;20059;-85
2022/09/10 07:06:38;;;;;;;25.27;16.40;;;16.40;99.90;;;;;;4938524;29;20035;-82
2022/09/10 07:09:03;;;;;;;20.08;15.80;;;16.40;99.90;;;;;;4948637;28;20488;-82
2022/09/10 07:11:45;;;;;;;27.92;17.58;;;16.40;99.90;;;;;;4957923;28;20066;-87
2022/09/10 07:14:18;;;;;;;25.17;16.30;;;16.40;99.90;;;;;;4966269;28;20435;-87
2022/09/10 07:20:27;;;;;;;26.55;17.42;;;16.50;99.90;;;;;;4951879;28;20516;-82
2022/09/10 07:23:08;;;;;;;22.17;16.63;;;16.60;99.90;;;;;;4943162;28;20480;-85
2022/09/10 07:26:04;;;;;;;26.00;17.17;;;16.70;99.90;;;;;;4947683;28;20043;-88
2022/09/10 07:28:30;;;;;;;23.45;17.10;;;16.70;99.90;;;;;;4941490;28;20098;-83
2022/09/10 07:30:56;;;;;;;24.27;17.85;;;16.70;99.90;;;;;;4943580;28;20039;-84
2022/09/10 07:33:22;;;;;;;25.38;16.92;;;16.70;99.90;;;;;;4950450;28;20047;-84
2022/09/10 07:35:48;;;;;;;23.63;17.40;;;16.80;99.90;;;;;;4938311;29;20047;-82
2022/09/10 07:38:27;;;;;;;24.35;16.83;;;16.80;99.90;;;;;;4952658;28;20085;-87
2022/09/10 07:41:09;;;;;;;21.27;16.17;;;16.90;99.90;;;;;;4947431;28;20039;-83
2022/09/10 07:44:11;;;;;;;22.88;16.00;;;16.90;99.90;;;;;;4952840;28;20037;-80
2022/09/10 07:47:05;;;;;;;25.02;16.38;;;17.00;99.90;;;;;;4967708;28;20059;-82
2022/09/10 07:49:31;;;;;;;21.55;15.70;;;17.10;99.90;;;;;;4946790;28;20067;-84
2022/09/10 07:51:58;;;;;;;17.95;15.85;;;17.00;99.90;;;;;;4950685;28;20058;-81
2022/09/10 07:54:27;;;;;;;19.25;15.65;;;17.10;99.90;;;;;;4957391;28;20054;-84
2022/09/10 07:57:01;;;;;;;18.30;15.25;;;17.10;99.90;;;;;;4950580;28;20511;-86
2022/09/10 07:59:27;;;;;;;1809.22;251.40;;;17.10;99.90;;;;;;4938732;28;20055;-81
2022/09/10 08:01:52;;;;;;;234.30;36.88;;;17.00;99.90;;;;;;4957229;28;20047;-85
2022/09/10 08:04:18;;;;;;;26.73;16.90;;;17.00;99.90;;;;;;4944957;28;20051;-85
2022/09/10 08:06:44;;;;;;;26.67;15.40;;;17.00;99.90;;;;;;4945723;28;20098;-84
2022/09/10 08:09:10;;;;;;;16.50;14.57;;;17.30;99.90;;;;;;4947084;28;20094;-86
2022/09/10 08:11:38;;;;;;;19.10;14.52;;;17.20;99.90;;;;;;4946996;28;20071;-82
2022/09/10 08:14:04;;;;;;;20.40;15.30;;;17.20;99.90;;;;;;4952726;28;20122;-82
2022/09/10 08:16:29;;;;;;;18.92;14.13;;;17.30;99.90;;;;;;4953563;28;20053;-82
2022/09/10 08:18:59;;;;;;;22.70;13.75;;;17.20;99.90;;;;;;4945671;28;20050;-85
2022/09/10 08:21:25;;;;;;;669.67;88.03;;;17.20;99.90;;;;;;4949209;28;20043;-83
2022/09/10 08:23:58;;;;;;;593.67;79.63;;;17.20;99.90;;;;;;4947994;28;20040;-79
2022/09/10 08:26:25;;;;;;;463.08;58.58;;;17.30;99.90;;;;;;4956095;28;20123;-83
2022/09/10 08:28:51;;;;;;;28.42;14.63;;;17.30;99.90;;;;;;4958882;28;20086;-82
2022/09/10 08:31:17;;;;;;;29.95;14.52;;;17.40;99.90;;;;;;4942360;28;20039;-83
2022/09/10 08:33:48;;;;;;;19.67;13.05;;;17.40;99.90;;;;;;4943950;28;20081;-81
2022/09/10 08:36:15;;;;;;;21.67;12.05;;;17.40;99.90;;;;;;4957615;28;20039;-81
2022/09/10 08:39:09;;;;;;;647.03;78.05;;;17.40;99.90;;;;;;4949424;28;20051;-85
2022/09/10 08:41:37;;;;;;;19.70;11.98;;;17.40;99.90;;;;;;4955898;28;20711;-84
2022/09/10 08:44:10;;;;;;;1719.45;247.80;;;17.50;99.90;;;;;;4959688;28;20110;-85
2022/09/10 08:46:41;;;;;;;19.60;14.38;;;17.50;99.90;;;;;;4950206;28;20378;-83
2022/09/10 08:49:48;;;;;;;472.60;49.10;;;17.60;99.90;;;;;;4943390;28;20051;-84
2022/09/10 08:52:41;;;;;;;18.75;11.60;;;17.70;99.90;;;;;;4942382;28;20040;-84
2022/09/10 08:55:19;;;;;;;26.40;12.77;;;17.60;99.90;;;;;;4952071;28;20448;-87
2022/09/10 08:58:24;;;;;;;18.38;11.20;;;17.60;99.90;;;;;;4925472;29;20071;-86
2022/09/10 09:00:57;;;;;;;12.70;11.35;;;17.70;99.90;;;;;;4946456;28;20070;-83
2022/09/10 09:03:36;;;;;;;21.15;12.40;;;17.70;99.90;;;;;;4942965;28;20057;-84
2022/09/10 09:06:04;;;;;;;13.55;9.55;;;17.80;99.90;;;;;;4946335;28;20054;-83
2022/09/10 09:08:35;;;;;;;15.27;11.23;;;17.70;99.90;;;;;;4940507;28;20039;-83
2022/09/10 09:11:38;;;;;;;12.18;9.30;;;17.80;99.90;;;;;;4947301;28;20040;-84
2022/09/10 09:14:28;;;;;;;10.75;8.57;;;17.80;99.90;;;;;;4942276;28;20881;-83
2022/09/10 09:17:16;;;;;;;10.32;9.15;;;17.90;99.90;;;;;;4956867;28;20051;-86
2022/09/10 09:20:17;;;;;;;16.05;9.30;;;17.90;99.90;;;;;;4954070;28;20047;-84
2022/09/10 09:22:50;;;;;;;11.80;9.82;;;18.00;99.90;;;;;;4924858;29;20039;-84
2022/09/10 09:26:07;;;;;;;12.40;9.98;;;18.10;99.90;;;;;;4942793;28;20050;-84
2022/09/10 09:28:50;;;;;;;14.15;9.75;;;18.20;99.90;;;;;;4920206;29;20047;-84
2022/09/10 09:31:22;;;;;;;11.48;9.40;;;18.30;99.90;;;;;;4931373;29;20043;-85
2022/09/10 09:33:49;;;;;;;10.35;8.98;;;18.30;99.90;;;;;;4942581;28;20533;-85
2022/09/10 09:36:48;;;;;;;12.70;9.80;;;18.40;99.90;;;;;;4933063;28;20050;-86
2022/09/10 09:39:22;;;;;;;11.52;9.88;;;18.70;99.90;;;;;;4932452;28;20058;-85
2022/09/10 09:41:57;;;;;;;11.13;9.85;;;18.40;99.90;;;;;;4937277;28;20043;-83
2022/09/10 09:44:35;;;;;;;10.55;9.50;;;18.40;99.90;;;;;;4938226;28;20776;-85
2022/09/10 09:47:01;;;;;;;12.27;9.20;;;18.50;99.90;;;;;;4943225;28;20191;-86
2022/09/10 09:49:28;;;;;;;12.80;9.57;;;18.70;99.90;;;;;;4929432;28;20063;-85
2022/09/10 09:51:54;;;;;;;15.30;10.60;;;18.80;99.90;;;;;;4947209;28;20436;-86
2022/09/10 09:54:26;;;;;;;13.52;10.25;;;18.80;99.90;;;;;;4946350;28;20571;-85
2022/09/10 09:56:57;;;;;;;13.27;9.32;;;19.20;99.90;;;;;;4947141;28;20035;-85
2022/09/10 09:59:50;;;;;;;10.27;8.32;;;19.50;99.90;;;;;;4947354;28;20039;-86
2022/09/10 10:02:19;;;;;;;8.48;7.60;;;19.40;99.90;;;;;;4942489;28;20123;-86
2022/09/10 10:05:06;;;;;;;10.85;6.88;;;19.40;99.90;;;;;;4942132;28;20039;-84
2022/09/10 10:07:35;;;;;;;13.73;7.60;;;19.50;99.90;;;;;;4931800;28;20170;-84
2022/09/10 10:10:03;;;;;;;10.70;7.25;;;19.60;99.90;;;;;;4945651;28;20028;-83
2022/09/10 10:12:30;;;;;;;9.35;6.95;;;19.60;99.90;;;;;;4941541;28;20077;-85
2022/09/10 10:14:58;;;;;;;6.60;6.00;;;19.80;99.90;;;;;;4926843;28;20055;-84
2022/09/10 10:17:29;;;;;;;6.13;5.50;;;19.70;99.90;;;;;;4957280;28;20472;-84
2022/09/10 10:20:23;;;;;;;5.43;4.25;;;19.80;99.90;;;;;;4962324;28;20652;-85
2022/09/10 10:27:15;;;;;;;8.57;4.05;;;20.00;99.90;;;;;;4946530;28;20455;-83
2022/09/10 10:29:45;;;;;;;4.75;3.60;;;20.00;99.90;;;;;;4939917;28;20051;-83
2022/09/10 10:35:10;;;;;;;;;;;20.00;99.90;;;;;;5611493;23;20066;-84
2022/09/10 10:38:25;;;;;;;7.53;5.00;;;20.00;99.90;;;;;;4923821;28;19918;-85
2022/09/10 10:48:54;;;;;;;11.23;7.80;;;20.10;99.90;;;;;;4933132;29;20034;-87
2022/09/10 10:52:35;;;;;;;9.80;6.82;;;20.20;99.90;;;;;;4929775;29;20172;-88
2022/09/10 11:00:17;;;;;;;8.63;7.72;;;20.70;99.90;;;;;;4910526;29;20111;-85
2022/09/10 11:14:17;;;;;;;11.02;6.95;;;21.00;99.90;;;;;;4853782;28;20109;-85
2022/09/10 11:17:14;;;;;;;8.30;6.18;;;20.60;99.90;;;;;;4927274;29;20048;-84
2022/09/10 11:20:17;;;;;;;7.60;6.25;;;20.80;99.90;;;;;;4920488;28;20048;-85
2022/09/10 11:23:28;;;;;;;10.13;6.57;;;20.80;99.90;;;;;;4935122;29;20056;-84
2022/09/10 11:26:14;;;;;;;7.75;6.38;;;20.80;99.90;;;;;;4882713;29;20052;-83
2022/09/10 11:29:10;;;;;;;9.85;6.50;;;20.90;99.90;;;;;;4918567;29;20099;-83
2022/09/10 11:31:52;;;;;;;12.73;7.07;;;21.00;99.90;;;;;;4911214;29;20083;-84
2022/09/10 11:34:33;;;;;;;8.85;6.85;;;21.10;99.90;;;;;;4922795;29;20083;-84
2022/09/10 11:37:43;;;;;;;8.48;5.28;;;21.00;99.90;;;;;;4921631;29;20059;-83
2022/09/10 11:40:35;;;;;;;8.43;6.03;;;21.00;99.90;;;;;;4873771;29;20061;-83
2022/09/10 11:43:18;;;;;;;9.07;5.63;;;20.90;99.90;;;;;;4894491;29;20087;-84
2022/09/10 11:45:56;;;;;;;6.97;4.70;;;20.90;99.90;;;;;;4923578;29;20104;-81
2022/09/10 11:48:37;;;;;;;7.15;5.15;;;21.00;99.90;;;;;;4945603;29;20106;-84
2022/09/10 11:51:37;;;;;;;11.63;5.30;;;21.00;99.90;;;;;;4927199;29;20052;-84
2022/09/10 11:54:12;;;;;;;7.75;5.95;;;21.20;99.90;;;;;;4921431;29;20441;-83
2022/09/10 11:56:58;;;;;;;18.90;6.80;;;21.20;99.90;;;;;;4933204;29;20036;-83
2022/09/10 11:59:54;;;;;;;9.18;6.45;;;21.00;99.90;;;;;;4933269;29;20068;-84
2022/09/10 12:02:57;;;;;;;12.93;8.23;;;20.80;99.90;;;;;;4926043;29;20047;-84
2022/09/10 12:06:03;;;;;;;10.80;7.68;;;21.00;99.90;;;;;;4929186;29;20043;-84
2022/09/10 12:08:35;;;;;;;10.90;7.25;;;20.90;99.90;;;;;;4935372;29;20366;-83
2022/09/10 12:11:16;;;;;;;12.65;7.22;;;20.90;99.90;;;;;;4928732;29;20051;-83
2022/09/10 12:13:44;;;;;;;11.32;7.50;;;20.90;99.90;;;;;;4930818;29;20058;-84
2022/09/10 12:16:43;;;;;;;11.68;7.60;;;20.90;99.90;;;;;;4933317;29;20058;-83
2022/09/10 12:19:39;;;;;;;9.50;6.65;;;20.90;99.90;;;;;;4921092;29;20055;-82
2022/09/10 12:22:16;;;;;;;8.30;6.00;;;20.90;99.90;;;;;;4922440;29;20044;-82
2022/09/10 12:25:00;;;;;;;10.90;6.00;;;20.70;99.90;;;;;;4927229;29;20086;-82
2022/09/10 12:27:44;;;;;;;9.52;5.93;;;20.80;99.90;;;;;;4932404;29;20400;-82
2022/09/10 12:30:28;;;;;;;8.75;5.68;;;20.90;99.90;;;;;;4926678;29;20043;-83
2022/09/10 12:32:59;;;;;;;13.27;6.30;;;21.00;99.90;;;;;;4932086;29;20040;-84
2022/09/10 12:35:34;;;;;;;10.23;6.25;;;21.10;99.90;;;;;;4915900;29;20070;-82
2022/09/10 12:38:38;;;;;;;8.40;5.63;;;21.20;99.90;;;;;;4931998;29;20047;-84
2022/09/10 12:41:09;;;;;;;10.80;5.43;;;21.30;99.90;;;;;;4927898;29;20078;-84
2022/09/10 12:43:38;;;;;;;7.10;5.15;;;21.30;99.90;;;;;;4939357;29;20078;-83
2022/09/10 12:46:13;;;;;;;8.77;4.97;;;21.30;99.90;;;;;;4923993;29;20047;-83
2022/09/10 13:40:56;;;;;;;6.68;4.50;;;21.40;99.90;;;;;;4856995;29;20063;-85
2022/09/10 13:48:13;;;;;;;6.10;3.92;;;21.60;99.90;;;;;;4855081;29;20182;-85
2022/09/10 13:50:51;;;;;;;5.78;3.15;;;21.70;99.90;;;;;;4872645;29;20438;-82
2022/09/10 13:53:18;;;;;;;4.35;2.92;;;21.60;99.90;;;;;;4898382;29;20080;-82
2022/09/10 13:55:54;;;;;;;9.18;2.53;;;21.60;99.90;;;;;;4930670;29;20046;-83
2022/09/10 13:58:27;;;;;;;4.18;3.40;;;21.60;99.90;;;;;;4925632;29;20119;-82
2022/09/10 14:01:02;;;;;;;4.72;3.70;;;21.60;99.90;;;;;;4923363;29;20054;-84
2022/09/10 14:03:36;;;;;;;4.30;2.40;;;21.60;99.90;;;;;;4953154;28;20098;-84
2022/09/10 14:06:17;;;;;;;5.03;3.03;;;21.60;99.90;;;;;;4921452;29;20133;-84
2022/09/10 14:09:04;;;;;;;5.15;2.50;;;21.70;99.90;;;;;;4910720;29;20063;-84
2022/09/10 14:11:36;;;;;;;5.38;2.85;;;21.80;99.90;;;;;;4929203;29;20511;-83
2022/09/10 14:14:11;;;;;;;4.75;2.45;;;21.90;99.90;;;;;;4925401;29;20051;-82
2022/09/10 14:16:45;;;;;;;5.05;2.67;;;22.00;99.90;;;;;;4927503;29;20055;-83
2022/09/10 14:19:39;;;;;;;6.05;2.70;;;22.20;99.90;;;;;;4926819;29;20122;-84
2022/09/10 14:22:05;;;;;;;4.90;2.20;;;22.30;99.90;;;;;;4923382;29;20051;-83
2022/09/10 14:24:44;;;;;;;4.82;2.47;;;22.20;99.90;;;;;;4913753;29;20043;-83
2022/09/10 14:27:24;;;;;;;3.40;2.20;;;22.20;99.90;;;;;;4923072;29;20046;-83
2022/09/10 14:29:51;;;;;;;4.53;2.28;;;22.10;99.90;;;;;;4930907;29;20079;-83
2022/09/10 14:32:35;;;;;;;3.70;2.60;;;22.00;99.90;;;;;;4921615;29;20044;-83
2022/09/10 14:35:36;;;;;;;4.05;2.13;;;21.70;99.90;;;;;;4925688;29;20517;-82
2022/09/10 14:38:20;;;;;;;3.28;1.95;;;21.50;99.90;;;;;;4924322;29;20080;-83
2022/09/10 14:40:46;;;;;;;4.80;2.05;;;21.50;99.90;;;;;;4924788;29;20055;-83
2022/09/10 14:43:26;;;;;;;4.20;1.83;;;21.60;99.90;;;;;;4927432;29;20040;-82
2022/09/10 14:45:52;;;;;;;4.88;2.35;;;21.80;99.90;;;;;;4925127;29;20501;-82
2022/09/10 14:48:28;;;;;;;3.42;2.05;;;21.90;99.90;;;;;;4924591;29;20042;-83
2022/09/10 14:51:23;;;;;;;3.40;1.70;;;22.10;99.90;;;;;;4925902;29;20048;-82
2022/09/10 14:53:51;;;;;;;8.65;1.50;;;22.10;99.90;;;;;;4925309;29;20584;-82
2022/09/10 14:56:29;;;;;;;5.43;1.52;;;22.30;99.90;;;;;;4926299;29;20043;-83
2022/09/10 14:59:32;;;;;;;3.72;1.67;;;22.10;99.90;;;;;;4926688;29;20047;-83
2022/09/10 15:02:00;;;;;;;5.25;1.38;;;22.00;99.90;;;;;;4923707;29;20063;-82